Time;durP1;ratioP1;P1;durP2;ratioP2;P2;SDS_P1;SDS_P2;PMS_P1;PMS_P2;Temp;Humidity;BMP_temperature;BMP_pressure;BME280_temperature;BME280_humidity;BME280_pressure;Samples;Min_cycle;Max_cycle;Signal;HPM_P1;HPM_P2
2023/02/22 00:01:46;;;;;;;0.13;0.13;;;6.70;99.90;;;;;;5016784;28;20503;-75
2023/02/22 00:04:12;;;;;;;0.20;0.20;;;6.70;99.90;;;;;;4998900;28;20022;-74
2023/02/22 00:06:38;;;;;;;0.20;0.20;;;6.80;99.90;;;;;;4997643;28;20056;-75
2023/02/22 00:09:03;;;;;;;0.10;0.10;;;6.70;99.90;;;;;;5008747;28;20410;-74
2023/02/22 00:11:30;;;;;;;0.10;0.10;;;6.70;99.90;;;;;;5016955;28;20018;-74
2023/02/22 00:13:56;;;;;;;0.10;0.10;;;6.80;99.90;;;;;;5010523;28;20022;-75
2023/02/22 00:16:23;;;;;;;0.20;0.20;;;6.70;99.90;;;;;;4997330;28;20577;-75
2023/02/22 00:18:49;;;;;;;0.10;0.10;;;6.70;99.90;;;;;;4997022;28;20431;-75
2023/02/22 00:21:15;;;;;;;0.20;0.20;;;6.70;99.90;;;;;;5014855;28;20096;-75
2023/02/22 00:23:47;;;;;;;0.10;0.10;;;6.70;99.90;;;;;;5016549;28;20137;-74
2023/02/22 00:26:19;;;;;;;0.20;0.20;;;6.70;99.90;;;;;;5003734;28;20045;-75
2023/02/22 00:28:51;;;;;;;0.10;0.10;;;6.70;99.90;;;;;;5012312;28;20018;-75
2023/02/22 00:31:17;;;;;;;0.20;0.20;;;6.70;99.90;;;;;;4997466;28;20037;-75
2023/02/22 00:33:43;;;;;;;0.20;0.20;;;6.70;99.90;;;;;;4995738;28;20030;-75
2023/02/22 00:36:11;;;;;;;0.10;0.10;;;6.70;99.90;;;;;;4996069;28;20100;-75
2023/02/22 00:38:37;;;;;;;0.20;0.20;;;6.70;99.90;;;;;;4995706;28;20062;-75
2023/02/22 00:41:03;;;;;;;0.20;0.20;;;6.70;99.90;;;;;;4995819;28;20061;-75
2023/02/22 00:43:28;;;;;;;0.20;0.20;;;6.70;99.90;;;;;;4996982;28;20038;-75
2023/02/22 00:45:56;;;;;;;0.10;0.10;;;6.60;99.90;;;;;;4995866;28;20025;-75
2023/02/22 00:48:24;;;;;;;0.20;0.20;;;6.60;99.90;;;;;;4996988;28;20019;-74
2023/02/22 00:50:53;;;;;;;0.10;0.10;;;6.70;99.90;;;;;;4997154;28;20395;-75
2023/02/22 00:53:19;;;;;;;0.10;0.10;;;6.70;99.90;;;;;;4996922;28;20072;-75
2023/02/22 00:55:45;;;;;;;0.20;0.20;;;6.60;99.90;;;;;;5011651;28;20030;-75
2023/02/22 00:58:11;;;;;;;0.20;0.20;;;6.70;99.90;;;;;;4997138;28;20026;-75
2023/02/22 01:00:40;;;;;;;0.10;0.10;;;6.70;99.90;;;;;;4996341;28;20032;-75
2023/02/22 01:03:09;;;;;;;0.20;0.20;;;6.70;99.90;;;;;;5006711;28;20026;-75
2023/02/22 01:05:35;;;;;;;0.20;0.20;;;6.70;99.90;;;;;;5014725;28;20483;-75
2023/02/22 01:08:02;;;;;;;0.10;0.10;;;6.70;99.90;;;;;;5011572;28;20033;-75
2023/02/22 01:10:29;;;;;;;0.10;0.10;;;6.70;99.90;;;;;;4996692;28;20031;-75
2023/02/22 01:12:56;;;;;;;0.10;0.10;;;6.80;99.90;;;;;;4994881;28;20499;-75
2023/02/22 01:15:24;;;;;;;0.15;0.15;;;6.70;99.90;;;;;;4995304;28;20095;-75
2023/02/22 01:17:52;;;;;;;0.20;0.20;;;6.80;99.90;;;;;;4994532;28;20038;-75
2023/02/22 01:20:21;;;;;;;0.20;0.20;;;6.80;99.90;;;;;;4998504;28;20026;-75
2023/02/22 01:22:49;;;;;;;0.10;0.10;;;6.70;99.90;;;;;;4998314;28;20030;-74
2023/02/22 01:25:20;;;;;;;0.20;0.20;;;6.70;99.90;;;;;;4998296;28;20027;-75
2023/02/22 01:27:45;;;;;;;0.20;0.20;;;6.70;99.90;;;;;;4995913;28;20030;-75
2023/02/22 01:30:13;;;;;;;0.13;0.13;;;6.80;99.90;;;;;;4995924;28;20386;-75
2023/02/22 01:32:40;;;;;;;0.10;0.10;;;6.70;99.90;;;;;;5010891;28;20026;-75
2023/02/22 01:35:12;;;;;;;0.10;0.10;;;6.70;99.90;;;;;;5012531;28;20124;-75
2023/02/22 01:37:38;;;;;;;0.17;0.17;;;6.70;99.90;;;;;;5010016;23;20062;-75
2023/02/22 01:40:08;;;;;;;0.10;0.10;;;6.70;99.90;;;;;;4995730;28;20046;-74
2023/02/22 01:42:34;;;;;;;0.10;0.10;;;6.70;99.90;;;;;;4995519;28;20033;-74
2023/02/22 01:45:37;;;;;;;0.20;0.20;;;6.70;99.90;;;;;;4997422;28;20058;-75
2023/02/22 01:48:24;;;;;;;0.10;0.10;;;6.70;99.90;;;;;;4976003;28;20022;-75
2023/02/22 01:51:09;;;;;;;0.10;0.10;;;6.70;99.90;;;;;;4990440;28;20027;-75
2023/02/22 01:53:38;;;;;;;0.10;0.10;;;6.70;99.90;;;;;;4979125;28;20033;-75
2023/02/22 01:56:05;;;;;;;0.20;0.20;;;6.70;99.90;;;;;;4975927;28;20031;-74
2023/02/22 01:58:33;;;;;;;0.17;0.17;;;6.70;99.90;;;;;;4976340;28;20023;-75
2023/02/22 02:01:00;;;;;;;0.20;0.20;;;6.70;99.90;;;;;;4975338;28;20472;-75
2023/02/22 02:03:29;;;;;;;0.10;0.10;;;6.70;99.90;;;;;;4975535;28;20027;-74
2023/02/22 02:05:59;;;;;;;0.20;0.20;;;6.70;99.90;;;;;;4975919;28;20066;-74
2023/02/22 02:08:37;;;;;;;0.10;0.10;;;6.70;99.90;;;;;;4976661;28;20038;-75
2023/02/22 02:11:06;;;;;;;0.20;0.20;;;6.70;99.90;;;;;;4976482;28;20179;-75
2023/02/22 02:13:32;;;;;;;0.15;0.15;;;6.70;99.90;;;;;;4975683;28;20043;-74
2023/02/22 02:15:57;;;;;;;0.20;0.20;;;6.70;99.90;;;;;;4974500;28;20026;-75
2023/02/22 02:18:25;;;;;;;0.20;0.20;;;6.70;99.90;;;;;;4976238;28;20547;-75
2023/02/22 02:21:01;;;;;;;0.20;0.20;;;6.70;99.90;;;;;;4976360;28;20037;-75
2023/02/22 02:24:11;;;;;;;0.13;0.13;;;6.70;99.90;;;;;;4973531;28;20027;-75
2023/02/22 02:26:59;;;;;;;0.10;0.10;;;6.80;99.90;;;;;;4952856;28;20111;-75
2023/02/22 02:29:43;;;;;;;0.10;0.10;;;6.70;99.90;;;;;;4919418;29;20035;-75
2023/02/22 02:32:33;;;;;;;0.20;0.20;;;6.80;99.90;;;;;;4950641;28;20086;-74
2023/02/22 02:35:21;;;;;;;0.10;0.10;;;6.80;99.90;;;;;;4976193;28;20035;-74
2023/02/22 02:37:52;;;;;;;0.20;0.20;;;6.70;99.90;;;;;;4976128;28;20066;-75
2023/02/22 02:41:06;;;;;;;0.10;0.10;;;6.80;99.90;;;;;;4990405;28;20110;-74
2023/02/22 02:43:55;;;;;;;0.20;0.20;;;6.70;99.90;;;;;;4937761;28;20119;-75
2023/02/22 02:46:44;;;;;;;0.20;0.20;;;6.80;99.90;;;;;;4976009;28;20077;-75
2023/02/22 02:49:23;;;;;;;0.10;0.10;;;6.70;99.90;;;;;;4975106;28;20065;-75
2023/02/22 02:51:52;;;;;;;0.20;0.20;;;6.70;99.90;;;;;;4974711;28;20425;-75
2023/02/22 02:54:19;;;;;;;0.17;0.17;;;6.80;99.90;;;;;;4974317;28;20392;-75
2023/02/22 02:56:46;;;;;;;0.10;0.10;;;6.80;99.90;;;;;;4975161;28;20027;-74
2023/02/22 02:59:38;;;;;;;0.10;0.10;;;6.70;99.90;;;;;;4976026;28;20473;-75
2023/02/22 03:02:29;;;;;;;0.10;0.10;;;6.80;99.90;;;;;;4975262;28;20087;-74
2023/02/22 03:05:27;;;;;;;0.20;0.20;;;6.80;99.90;;;;;;4974024;28;20031;-75
2023/02/22 03:08:01;;;;;;;0.20;0.20;;;6.80;99.90;;;;;;4975361;28;20058;-75
2023/02/22 03:10:49;;;;;;;0.10;0.10;;;6.80;99.90;;;;;;4975604;28;20487;-75
2023/02/22 03:13:23;;;;;;;0.13;0.13;;;6.80;99.90;;;;;;4974026;28;20085;-75
2023/02/22 03:16:01;;;;;;;0.10;0.10;;;6.80;99.90;;;;;;4977619;28;20031;-74
2023/02/22 03:18:29;;;;;;;0.20;0.20;;;6.80;99.90;;;;;;4978913;28;20102;-74
2023/02/22 03:21:00;;;;;;;0.17;0.17;;;6.80;99.90;;;;;;4978789;28;20476;-75
2023/02/22 03:23:35;;;;;;;0.10;0.10;;;6.80;99.90;;;;;;4979020;28;20074;-75
2023/02/22 03:26:08;;;;;;;0.20;0.20;;;6.80;99.90;;;;;;5006738;23;20204;-75
2023/02/22 03:28:38;;;;;;;0.10;0.10;;;6.80;99.90;;;;;;5017955;28;20054;-74
2023/02/22 03:31:12;;;;;;;0.20;0.20;;;6.80;99.90;;;;;;5015159;28;20042;-74
2023/02/22 03:33:53;;;;;;;0.10;0.10;;;6.80;99.90;;;;;;4998572;28;20409;-74
2023/02/22 03:36:26;;;;;;;0.20;0.20;;;6.80;99.90;;;;;;5000681;28;20049;-75
2023/02/22 03:38:54;;;;;;;0.10;0.10;;;6.80;99.90;;;;;;5018195;28;20029;-75
2023/02/22 03:41:25;;;;;;;0.10;0.10;;;6.80;99.90;;;;;;5017711;28;20042;-75
2023/02/22 03:44:05;;;;;;;0.17;0.17;;;6.70;99.90;;;;;;5011915;28;20026;-75
2023/02/22 03:46:32;;;;;;;0.10;0.10;;;6.70;99.90;;;;;;5018339;28;20024;-75
2023/02/22 03:49:19;;;;;;;0.10;0.10;;;6.70;99.90;;;;;;5017355;28;20030;-74
2023/02/22 03:51:45;;;;;;;0.10;0.10;;;6.70;99.90;;;;;;5017026;28;20523;-75
2023/02/22 03:54:15;;;;;;;0.10;0.10;;;6.70;99.90;;;;;;5018335;28;20368;-75
2023/02/22 03:56:48;;;;;;;0.13;0.13;;;6.70;99.90;;;;;;5017169;28;20057;-75
2023/02/22 03:59:14;;;;;;;0.20;0.20;;;6.70;99.90;;;;;;5016120;28;20042;-75
2023/02/22 04:01:40;;;;;;;0.10;0.10;;;6.80;99.90;;;;;;5017796;28;20022;-74
2023/02/22 04:04:06;;;;;;;0.10;0.10;;;6.70;99.90;;;;;;5016194;28;20032;-75
2023/02/22 04:06:32;;;;;;;0.10;0.10;;;6.70;99.90;;;;;;5016456;28;20022;-74
2023/02/22 04:08:58;;;;;;;0.10;0.10;;;6.70;99.90;;;;;;5017062;28;20096;-75
2023/02/22 04:11:23;;;;;;;0.20;0.20;;;6.80;99.90;;;;;;5017651;28;20443;-75
2023/02/22 04:13:49;;;;;;;0.10;0.10;;;6.80;99.90;;;;;;5017051;28;20113;-75
2023/02/22 04:16:14;;;;;;;0.10;0.10;;;6.70;99.90;;;;;;5017249;28;20112;-75
2023/02/22 04:18:40;;;;;;;0.10;0.10;;;6.70;99.90;;;;;;5014114;28;20034;-74
2023/02/22 04:21:05;;;;;;;0.10;0.10;;;6.70;99.90;;;;;;5017168;28;20033;-74
2023/02/22 04:23:31;;;;;;;0.10;0.10;;;6.70;99.90;;;;;;5016871;28;20030;-75
2023/02/22 04:25:56;;;;;;;0.10;0.10;;;6.80;99.90;;;;;;5014976;28;20038;-75
2023/02/22 04:28:22;;;;;;;0.10;0.10;;;6.70;99.90;;;;;;5016321;28;20025;-75
2023/02/22 04:30:48;;;;;;;0.10;0.10;;;6.80;99.90;;;;;;5016045;28;20487;-75
2023/02/22 04:33:16;;;;;;;0.10;0.10;;;6.80;99.90;;;;;;5015494;28;20100;-75
2023/02/22 04:35:41;;;;;;;0.10;0.10;;;6.80;99.90;;;;;;5016945;28;20034;-74
2023/02/22 04:38:08;;;;;;;0.10;0.10;;;6.80;99.90;;;;;;5016569;28;20088;-75
2023/02/22 04:40:34;;;;;;;0.13;0.13;;;6.70;99.90;;;;;;5015094;28;20080;-75
2023/02/22 04:42:59;;;;;;;0.10;0.10;;;6.80;99.90;;;;;;5016854;28;20415;-75
2023/02/22 04:45:25;;;;;;;0.20;0.20;;;6.80;99.90;;;;;;5016297;28;20030;-75
2023/02/22 04:47:50;;;;;;;0.10;0.10;;;6.70;99.90;;;;;;5016660;28;20080;-75
2023/02/22 04:50:16;;;;;;;0.10;0.10;;;6.70;99.90;;;;;;5016070;28;20030;-75
2023/02/22 04:52:42;;;;;;;0.10;0.10;;;6.70;99.90;;;;;;5016877;28;20030;-75
2023/02/22 04:55:07;;;;;;;0.10;0.10;;;6.70;99.90;;;;;;5014467;28;20105;-75
2023/02/22 04:57:33;;;;;;;0.10;0.10;;;6.70;99.90;;;;;;5014817;28;20116;-75
2023/02/22 04:59:58;;;;;;;0.10;0.10;;;6.80;99.90;;;;;;5015934;28;20072;-75
2023/02/22 05:02:24;;;;;;;0.15;0.15;;;6.80;99.90;;;;;;5016750;28;20081;-75
2023/02/22 05:04:50;;;;;;;0.13;0.13;;;6.80;99.90;;;;;;5014807;28;20052;-75
2023/02/22 05:07:16;;;;;;;0.10;0.10;;;6.80;99.90;;;;;;5016080;28;20487;-75
2023/02/22 05:09:42;;;;;;;0.17;0.17;;;6.80;99.90;;;;;;5016008;28;20483;-75
2023/02/22 05:12:07;;;;;;;0.10;0.10;;;6.80;99.90;;;;;;5014594;28;20038;-75
2023/02/22 05:14:33;;;;;;;0.20;0.20;;;6.80;99.90;;;;;;5016316;28;20037;-75
2023/02/22 05:17:00;;;;;;;0.15;0.15;;;6.80;99.90;;;;;;5015477;28;20034;-74
2023/02/22 05:19:26;;;;;;;0.20;0.20;;;6.80;99.90;;;;;;5014900;28;20117;-74
2023/02/22 05:21:51;;;;;;;0.20;0.20;;;6.80;99.90;;;;;;5014973;28;20054;-74
2023/02/22 05:24:17;;;;;;;0.10;0.10;;;6.70;99.90;;;;;;5015878;28;20560;-74
2023/02/22 05:26:43;;;;;;;0.10;0.10;;;6.80;99.90;;;;;;5015180;28;20037;-75
2023/02/22 05:29:09;;;;;;;0.20;0.20;;;6.80;99.90;;;;;;5015927;28;20100;-75
2023/02/22 05:31:40;;;;;;;0.17;0.17;;;6.70;99.90;;;;;;5015541;28;20653;-74
2023/02/22 05:34:06;;;;;;;0.20;0.20;;;6.80;99.90;;;;;;5015251;28;20502;-75
2023/02/22 05:36:31;;;;;;;0.10;0.10;;;6.80;99.90;;;;;;5015759;28;20030;-75
2023/02/22 05:38:57;;;;;;;0.20;0.20;;;6.70;99.90;;;;;;5014458;28;20092;-75
2023/02/22 05:41:22;;;;;;;0.20;0.20;;;6.80;99.90;;;;;;5014965;28;20038;-75
2023/02/22 05:43:48;;;;;;;0.10;0.10;;;6.80;99.90;;;;;;5014085;28;20044;-75
2023/02/22 05:46:14;;;;;;;0.20;0.20;;;6.70;99.90;;;;;;5015592;28;20064;-75
2023/02/22 05:48:39;;;;;;;0.20;0.20;;;6.80;99.90;;;;;;5014969;28;20028;-74
2023/02/22 05:51:06;;;;;;;0.20;0.20;;;6.80;99.90;;;;;;5015630;28;20045;-75
2023/02/22 05:53:31;;;;;;;0.10;0.10;;;6.80;99.90;;;;;;5014093;28;20029;-74
2023/02/22 05:55:57;;;;;;;0.20;0.20;;;6.80;99.90;;;;;;5014377;28;20022;-75
2023/02/22 05:58:22;;;;;;;0.10;0.10;;;6.80;99.90;;;;;;5013791;28;20026;-75
2023/02/22 06:00:48;;;;;;;0.17;0.17;;;6.80;99.90;;;;;;5015790;28;20034;-75
2023/02/22 06:03:14;;;;;;;0.10;0.10;;;6.80;99.90;;;;;;5014981;28;20022;-75
2023/02/22 06:05:40;;;;;;;0.20;0.20;;;6.80;99.90;;;;;;5015379;28;20026;-74
2023/02/22 06:08:06;;;;;;;0.10;0.10;;;6.80;99.90;;;;;;5014081;28;20028;-74
2023/02/22 06:10:32;;;;;;;0.20;0.20;;;6.80;99.90;;;;;;5012065;28;20160;-74
2023/02/22 06:12:59;;;;;;;0.10;0.10;;;6.80;99.90;;;;;;5013630;28;20509;-74
2023/02/22 06:15:25;;;;;;;0.10;0.10;;;6.80;99.90;;;;;;5014636;28;20026;-74
2023/02/22 06:17:52;;;;;;;0.10;0.10;;;6.80;99.90;;;;;;5015068;28;20484;-74
2023/02/22 06:20:20;;;;;;;0.10;0.10;;;6.70;99.90;;;;;;5014531;28;20391;-75
2023/02/22 06:22:50;;;;;;;0.17;0.17;;;6.70;99.90;;;;;;5013893;28;20022;-75
2023/02/22 06:25:20;;;;;;;0.10;0.10;;;6.70;99.90;;;;;;5014558;28;20022;-75
2023/02/22 06:27:46;;;;;;;0.20;0.20;;;6.70;99.90;;;;;;5014616;28;20022;-75
2023/02/22 06:30:13;;;;;;;0.10;0.10;;;6.70;99.90;;;;;;5014272;28;20029;-75
2023/02/22 06:32:39;;;;;;;0.10;0.10;;;6.70;99.90;;;;;;5014685;28;20032;-75
2023/02/22 06:35:05;;;;;;;0.20;0.20;;;6.70;99.90;;;;;;5013267;28;20470;-73
2023/02/22 06:37:30;;;;;;;0.13;0.13;;;6.80;99.90;;;;;;5014465;28;20101;-74
2023/02/22 06:39:56;;;;;;;0.10;0.10;;;6.80;99.90;;;;;;5014859;28;20072;-74
2023/02/22 06:42:22;;;;;;;0.20;0.20;;;6.80;99.90;;;;;;5014317;28;20049;-74
2023/02/22 06:44:48;;;;;;;0.10;0.10;;;6.80;99.90;;;;;;5015178;28;20026;-74
2023/02/22 06:47:14;;;;;;;0.10;0.10;;;6.80;99.90;;;;;;5014405;28;20032;-74
2023/02/22 06:49:39;;;;;;;0.20;0.20;;;6.80;99.90;;;;;;5015631;28;20021;-75
2023/02/22 06:52:07;;;;;;;0.20;0.20;;;6.80;99.90;;;;;;5018454;28;20109;-73
2023/02/22 06:54:32;;;;;;;0.10;0.10;;;6.80;99.90;;;;;;5016786;28;20080;-74
2023/02/22 06:57:00;;;;;;;0.13;0.13;;;6.80;99.90;;;;;;5018326;28;20030;-73
2023/02/22 06:59:26;;;;;;;0.10;0.10;;;6.90;99.90;;;;;;5018086;28;20030;-74
2023/02/22 07:01:52;;;;;;;0.10;0.10;;;6.80;99.90;;;;;;5018733;28;20104;-74
2023/02/22 07:04:18;;;;;;;0.10;0.10;;;6.80;99.90;;;;;;5017166;28;20102;-74
2023/02/22 07:06:47;;;;;;;0.20;0.20;;;6.80;99.90;;;;;;5018556;28;20022;-74
2023/02/22 07:09:14;;;;;;;0.10;0.10;;;6.90;99.90;;;;;;5018140;28;20014;-74
2023/02/22 07:11:40;;;;;;;0.10;0.10;;;6.90;99.90;;;;;;5018237;28;20052;-74
2023/02/22 07:14:09;;;;;;;0.20;0.20;;;6.90;99.90;;;;;;5017982;28;20058;-74
2023/02/22 07:16:35;;;;;;;0.15;0.15;;;6.90;99.90;;;;;;5018457;28;20125;-74
2023/02/22 07:19:00;;;;;;;0.10;0.10;;;6.90;99.90;;;;;;5017409;28;20057;-74
2023/02/22 07:21:28;;;;;;;0.10;0.10;;;6.90;99.90;;;;;;5018154;28;20030;-74
2023/02/22 07:23:55;;;;;;;0.10;0.10;;;6.90;99.90;;;;;;5018694;28;20021;-74
2023/02/22 07:26:22;;;;;;;0.15;0.15;;;6.90;99.90;;;;;;5017747;28;20029;-74
2023/02/22 07:28:48;;;;;;;0.10;0.10;;;6.90;99.90;;;;;;5018378;28;20096;-74
2023/02/22 07:31:14;;;;;;;0.10;0.10;;;6.90;99.90;;;;;;5017915;28;20459;-74
2023/02/22 07:33:39;;;;;;;0.10;0.10;;;6.90;99.90;;;;;;5018003;28;20061;-74
2023/02/22 07:36:05;;;;;;;0.20;0.20;;;6.90;99.90;;;;;;5016722;28;20072;-74
2023/02/22 07:38:31;;;;;;;0.10;0.10;;;6.90;99.90;;;;;;5017600;28;20388;-74
2023/02/22 07:40:57;;;;;;;0.10;0.10;;;6.90;99.90;;;;;;5016855;28;20036;-74
2023/02/22 07:43:25;;;;;;;0.10;0.10;;;7.00;99.90;;;;;;5016776;28;20046;-74
2023/02/22 07:45:53;;;;;;;0.10;0.10;;;7.00;99.90;;;;;;5018591;28;20117;-74
2023/02/22 07:48:20;;;;;;;0.10;0.10;;;7.00;99.90;;;;;;5017990;28;20026;-74
2023/02/22 07:50:46;;;;;;;0.10;0.10;;;7.00;99.90;;;;;;5017295;28;20029;-74
2023/02/22 07:53:21;;;;;;;0.10;0.10;;;7.00;99.90;;;;;;5018346;28;20041;-74
2023/02/22 07:55:49;;;;;;;0.10;0.10;;;7.10;99.90;;;;;;5017559;28;20053;-74
2023/02/22 07:58:17;;;;;;;0.10;0.10;;;7.10;99.90;;;;;;5016387;28;20037;-74
2023/02/22 08:00:43;;;;;;;0.10;0.10;;;7.10;99.90;;;;;;5016020;28;20037;-74
2023/02/22 08:03:12;;;;;;;0.10;0.10;;;7.10;99.90;;;;;;5016845;28;20030;-74
2023/02/22 08:05:43;;;;;;;0.00;0.00;;;7.10;99.90;;;;;;5017003;28;20505;-74
2023/02/22 08:08:09;;;;;;;0.10;0.10;;;7.10;99.90;;;;;;5017102;28;20022;-74
2023/02/22 08:10:35;;;;;;;0.10;0.10;;;7.10;99.90;;;;;;5017121;28;20125;-74
2023/02/22 08:13:02;;;;;;;0.10;0.10;;;7.20;99.90;;;;;;5015695;28;20468;-74
2023/02/22 08:15:36;;;;;;;0.15;0.15;;;7.20;99.90;;;;;;5017421;28;20475;-74
2023/02/22 08:18:03;;;;;;;0.10;0.10;;;7.20;99.90;;;;;;5016805;28;20034;-74
2023/02/22 08:20:30;;;;;;;0.10;0.10;;;7.20;99.90;;;;;;5015879;28;20022;-74
2023/02/22 08:22:56;;;;;;;0.10;0.10;;;7.20;99.90;;;;;;5016876;28;20022;-74
2023/02/22 08:25:25;;;;;;;0.10;0.10;;;7.20;99.90;;;;;;5016633;28;20033;-74
2023/02/22 08:27:57;;;;;;;0.10;0.10;;;7.20;99.90;;;;;;5017350;28;20080;-74
2023/02/22 08:30:23;;;;;;;0.10;0.10;;;7.20;99.90;;;;;;4997583;28;20070;-74
2023/02/22 08:32:49;;;;;;;0.10;0.10;;;7.20;99.90;;;;;;4995448;28;20395;-74
2023/02/22 08:35:17;;;;;;;0.20;0.20;;;7.20;99.90;;;;;;4997305;28;20041;-74
2023/02/22 08:37:47;;;;;;;0.10;0.10;;;7.30;99.90;;;;;;4996906;28;20491;-74
2023/02/22 08:40:16;;;;;;;0.10;0.10;;;7.30;99.90;;;;;;5004529;28;20434;-74
2023/02/22 08:42:42;;;;;;;0.10;0.10;;;7.30;99.90;;;;;;5016337;28;20026;-74
2023/02/22 08:45:08;;;;;;;0.10;0.10;;;7.30;99.90;;;;;;5016769;28;20026;-75
2023/02/22 08:47:39;;;;;;;0.10;0.10;;;7.30;99.90;;;;;;5016359;28;20046;-74
2023/02/22 08:50:05;;;;;;;0.10;0.10;;;7.40;99.90;;;;;;5016541;28;20051;-75
2023/02/22 08:52:31;;;;;;;0.10;0.10;;;7.40;99.90;;;;;;5005798;28;20060;-74
2023/02/22 08:54:56;;;;;;;0.10;0.10;;;7.40;99.90;;;;;;5015021;28;20034;-75
2023/02/22 08:57:22;;;;;;;0.10;0.10;;;7.40;99.90;;;;;;5016902;28;20097;-74
2023/02/22 08:59:48;;;;;;;0.10;0.10;;;7.50;99.90;;;;;;5014999;28;20391;-74
2023/02/22 09:02:19;;;;;;;0.10;0.10;;;7.50;99.90;;;;;;5016572;28;20076;-75
2023/02/22 09:04:46;;;;;;;0.10;0.10;;;7.60;99.90;;;;;;5016578;28;20534;-75
2023/02/22 09:07:12;;;;;;;0.10;0.10;;;7.60;99.90;;;;;;5016952;28;20025;-75
2023/02/22 09:09:37;;;;;;;0.10;0.10;;;7.70;99.90;;;;;;5016472;28;20034;-75
2023/02/22 09:12:03;;;;;;;0.10;0.10;;;7.70;99.90;;;;;;5014666;28;20041;-76
2023/02/22 09:14:29;;;;;;;0.10;0.10;;;7.70;99.90;;;;;;5016312;28;20082;-75
2023/02/22 09:16:54;;;;;;;0.10;0.10;;;7.70;99.90;;;;;;5036894;23;20053;-74
2023/02/22 09:19:20;;;;;;;0.10;0.10;;;7.70;99.90;;;;;;5014365;28;20057;-75
2023/02/22 09:21:52;;;;;;;0.13;0.13;;;7.70;99.90;;;;;;5014529;28;20073;-74
2023/02/22 09:24:17;;;;;;;0.10;0.10;;;7.80;99.90;;;;;;5015054;28;20545;-74
2023/02/22 09:26:46;;;;;;;0.10;0.10;;;7.90;99.90;;;;;;5014142;28;20047;-75
2023/02/22 09:29:12;;;;;;;0.10;0.10;;;7.90;99.90;;;;;;5014319;28;20025;-74
2023/02/22 09:31:39;;;;;;;0.10;0.10;;;8.00;99.90;;;;;;5014308;28;20049;-74
2023/02/22 09:34:12;;;;;;;0.10;0.10;;;8.00;99.90;;;;;;5014216;28;20104;-74
2023/02/22 09:36:47;;;;;;;0.10;0.10;;;8.00;99.90;;;;;;5013905;28;20113;-74
2023/02/22 09:39:16;;;;;;;0.10;0.10;;;8.10;99.90;;;;;;5029339;28;20470;-75
2023/02/22 09:42:20;;;;;;;0.10;0.10;;;8.20;99.90;;;;;;5013774;28;20026;-74
2023/02/22 09:44:54;;;;;;;0.10;0.10;;;8.30;99.90;;;;;;4994543;28;20033;-75
2023/02/22 09:47:31;;;;;;;0.10;0.10;;;8.30;99.90;;;;;;4994334;28;20491;-75
2023/02/22 09:50:15;;;;;;;0.13;0.13;;;8.30;99.90;;;;;;5012453;28;20084;-74
2023/02/22 09:52:56;;;;;;;0.10;0.10;;;8.30;99.90;;;;;;5013777;28;20041;-74
2023/02/22 09:55:36;;;;;;;0.10;0.10;;;8.30;99.90;;;;;;5012894;28;20036;-74
2023/02/22 09:58:12;;;;;;;0.10;0.10;;;8.40;99.90;;;;;;5005944;28;20038;-74
2023/02/22 10:00:42;;;;;;;0.15;0.15;;;8.40;99.90;;;;;;5014090;28;20037;-74
2023/02/22 10:03:40;;;;;;;0.10;0.10;;;8.50;99.90;;;;;;5013993;28;20021;-75
2023/02/22 10:06:20;;;;;;;0.10;0.10;;;8.50;99.90;;;;;;5008260;28;20065;-75
2023/02/22 10:08:46;;;;;;;0.17;0.17;;;8.50;99.90;;;;;;5009165;28;20030;-75
2023/02/22 10:11:21;;;;;;;0.10;0.10;;;8.50;99.90;;;;;;5012625;28;20034;-74
2023/02/22 10:14:20;;;;;;;0.10;0.10;;;8.50;99.90;;;;;;5014687;28;20028;-74
2023/02/22 10:17:12;;;;;;;0.20;0.20;;;8.60;99.90;;;;;;4989413;28;20100;-75
2023/02/22 10:19:59;;;;;;;0.13;0.13;;;8.70;99.90;;;;;;5013808;28;20117;-74
2023/02/22 10:22:57;;;;;;;0.10;0.10;;;8.70;99.90;;;;;;5013587;28;20480;-75
2023/02/22 10:25:27;;;;;;;0.20;0.20;;;8.90;99.90;;;;;;5012867;28;20479;-75
2023/02/22 10:28:12;;;;;;;0.10;0.10;;;8.90;99.90;;;;;;5013088;28;20049;-75
2023/02/22 10:30:44;;;;;;;0.10;0.10;;;9.10;99.90;;;;;;5013406;28;20045;-75
2023/02/22 10:33:18;;;;;;;0.20;0.20;;;9.20;99.90;;;;;;5013682;28;20468;-74
2023/02/22 10:35:45;;;;;;;0.10;0.10;;;9.20;99.90;;;;;;5013431;28;20032;-75
2023/02/22 10:38:16;;;;;;;0.10;0.10;;;9.20;99.90;;;;;;5013457;28;20542;-75
2023/02/22 10:41:09;;;;;;;0.10;0.10;;;9.20;99.90;;;;;;5013185;28;20022;-75
2023/02/22 10:43:41;;;;;;;0.10;0.10;;;9.20;99.90;;;;;;5013363;28;20029;-75
2023/02/22 10:46:12;;;;;;;0.10;0.10;;;9.10;99.90;;;;;;5013448;28;20018;-75
2023/02/22 10:48:41;;;;;;;0.20;0.20;;;9.20;99.90;;;;;;5012043;28;20029;-75
2023/02/22 10:51:08;;;;;;;0.20;0.20;;;9.20;99.90;;;;;;5013097;28;20121;-74
2023/02/22 10:53:37;;;;;;;0.10;0.10;;;9.30;99.90;;;;;;5013237;28;20502;-74
2023/02/22 10:56:08;;;;;;;0.10;0.10;;;9.40;99.90;;;;;;5010562;28;20494;-75
2023/02/22 10:59:03;;;;;;;0.20;0.20;;;9.60;99.90;;;;;;4994979;28;20033;-74
2023/02/22 11:01:31;;;;;;;0.10;0.10;;;9.60;99.90;;;;;;4994471;28;20030;-75
2023/02/22 11:04:18;;;;;;;0.10;0.10;;;9.70;99.90;;;;;;5013321;28;20022;-74
2023/02/22 11:07:06;;;;;;;0.17;0.17;;;9.70;99.90;;;;;;5012809;28;20113;-75
2023/02/22 11:09:55;;;;;;;0.17;0.17;;;9.80;99.90;;;;;;5013285;28;20041;-75
2023/02/22 11:12:30;;;;;;;0.10;0.10;;;9.70;99.90;;;;;;5013039;28;20227;-74
2023/02/22 11:15:21;;;;;;;0.20;0.20;;;9.80;99.90;;;;;;5011056;28;20030;-75
2023/02/22 11:17:48;;;;;;;0.20;0.20;;;9.90;99.90;;;;;;5012510;28;20079;-74
2023/02/22 11:20:26;;;;;;;0.20;0.20;;;9.90;99.90;;;;;;4994761;28;20026;-74
2023/02/22 11:22:53;;;;;;;0.10;0.10;;;9.90;99.90;;;;;;4993269;28;20064;-74
2023/02/22 11:25:23;;;;;;;0.10;0.10;;;9.80;99.90;;;;;;5008625;28;20161;-75
2023/02/22 11:27:51;;;;;;;0.20;0.20;;;9.80;99.90;;;;;;5012757;28;20033;-74
2023/02/22 11:30:32;;;;;;;0.10;0.10;;;9.80;99.90;;;;;;5024715;28;20022;-74
2023/02/22 11:33:15;;;;;;;0.10;0.10;;;9.80;99.90;;;;;;4993298;28;20033;-74
2023/02/22 11:35:59;;;;;;;0.10;0.10;;;9.80;99.90;;;;;;4992931;28;20026;-74
2023/02/22 11:38:29;;;;;;;;;;;9.70;99.90;;;;;;4995982;28;20031;-75
2023/02/22 11:41:23;;;;;;;0.13;0.13;;;9.70;99.90;;;;;;5005516;28;19945;-74
2023/02/22 11:43:50;;;;;;;0.20;0.20;;;9.70;99.90;;;;;;5031720;28;20022;-75
2023/02/22 11:46:20;;;;;;;0.10;0.10;;;9.70;99.90;;;;;;5016440;28;20026;-74
2023/02/22 11:49:06;;;;;;;0.20;0.20;;;9.70;99.90;;;;;;5016500;28;20057;-74
2023/02/22 11:51:40;;;;;;;0.20;0.20;;;9.70;99.90;;;;;;5011795;28;20068;-75
2023/02/22 11:54:51;;;;;;;0.20;0.20;;;9.80;99.90;;;;;;5011935;28;20394;-74
2023/02/22 11:57:54;;;;;;;0.10;0.10;;;9.90;99.90;;;;;;4996661;28;20022;-74
2023/02/22 12:00:49;;;;;;;0.10;0.10;;;10.00;99.90;;;;;;4996758;28;20096;-75
2023/02/22 12:03:50;;;;;;;0.20;0.20;;;10.10;99.90;;;;;;4996507;28;20027;-74
2023/02/22 12:06:53;;;;;;;0.10;0.10;;;10.30;99.90;;;;;;5001567;28;20018;-74
2023/02/22 12:09:40;;;;;;;0.20;0.20;;;10.30;99.90;;;;;;5015810;28;20045;-75
2023/02/22 12:12:31;;;;;;;0.10;0.10;;;10.30;99.90;;;;;;5016109;28;20383;-74
2023/02/22 12:15:02;;;;;;;0.10;0.10;;;10.20;99.90;;;;;;5015730;28;20060;-75
2023/02/22 12:17:43;;;;;;;0.15;0.15;;;10.20;99.90;;;;;;5015634;28;20040;-74
2023/02/22 12:20:24;;;;;;;0.10;0.10;;;10.20;99.90;;;;;;5015804;28;20505;-74
2023/02/22 12:23:11;;;;;;;0.10;0.10;;;10.20;99.90;;;;;;5015829;28;20036;-74
2023/02/22 12:25:42;;;;;;;0.10;0.10;;;10.20;99.90;;;;;;5015646;28;20018;-75
2023/02/22 12:28:22;;;;;;;0.10;0.10;;;10.10;99.90;;;;;;5015409;28;20053;-74
2023/02/22 12:31:00;;;;;;;0.10;0.10;;;10.10;99.90;;;;;;5015948;28;20026;-74
2023/02/22 12:33:29;;;;;;;0.10;0.10;;;10.20;99.90;;;;;;4996063;28;20440;-74
2023/02/22 12:35:58;;;;;;;0.13;0.13;;;10.20;99.90;;;;;;4996240;28;20066;-74
2023/02/22 12:38:36;;;;;;;0.20;0.20;;;10.20;99.90;;;;;;4995861;28;20065;-74
2023/02/22 12:41:08;;;;;;;0.20;0.20;;;10.10;99.90;;;;;;4995509;28;20034;-75
2023/02/22 12:43:41;;;;;;;0.10;0.10;;;10.30;99.90;;;;;;5007422;28;20117;-74
2023/02/22 12:46:12;;;;;;;0.17;0.17;;;10.40;99.90;;;;;;5015467;28;20041;-75
2023/02/22 12:49:18;;;;;;;0.20;0.20;;;10.60;99.90;;;;;;5014853;28;20033;-74
2023/02/22 12:51:56;;;;;;;0.15;0.15;;;10.70;99.90;;;;;;5013333;28;20087;-74
2023/02/22 12:54:52;;;;;;;0.20;0.20;;;10.80;99.90;;;;;;5015146;28;20033;-74
2023/02/22 12:57:40;;;;;;;0.13;0.13;;;10.90;99.90;;;;;;5013529;28;20129;-74
2023/02/22 13:00:58;;;;;;;0.20;0.20;;;10.90;99.90;;;;;;5015516;28;20032;-74
2023/02/22 13:03:40;;;;;;;0.20;0.20;;;10.90;99.90;;;;;;4989269;28;20518;-74
2023/02/22 13:06:23;;;;;;;0.13;0.13;;;10.90;99.90;;;;;;5014834;28;20045;-74
2023/02/22 13:09:02;;;;;;;0.20;0.20;;;10.80;99.90;;;;;;5014905;28;20022;-75
2023/02/22 13:11:43;;;;;;;0.20;0.20;;;10.70;99.90;;;;;;5014925;28;20030;-75
2023/02/22 13:14:23;;;;;;;0.20;0.20;;;10.60;99.90;;;;;;5014533;28;20105;-75
2023/02/22 13:16:54;;;;;;;0.20;0.20;;;10.60;99.90;;;;;;5014714;28;20041;-74
2023/02/22 13:19:44;;;;;;;0.10;0.10;;;10.50;99.90;;;;;;5014510;28;20026;-74
2023/02/22 13:22:09;;;;;;;0.17;0.17;;;10.50;99.90;;;;;;5014840;28;20534;-74